Time;durP1;ratioP1;P1;durP2;ratioP2;P2;SDS_P1;SDS_P2;PMS_P1;PMS_P2;Temp;Humidity;BMP_temperature;BMP_pressure;BME280_temperature;BME280_humidity;BME280_pressure;Samples;Min_cycle;Max_cycle;Signal;HPM_P1;HPM_P2
2021/07/25 00:01:02;;;;;;;23.88;18.45;;;;;;;-146.61;100.00;58846.50;6261388;22;20446;-83
2021/07/25 00:03:28;;;;;;;23.95;17.02;;;;;;;-146.61;100.00;58846.50;6260202;22;20034;-85
2021/07/25 00:05:57;;;;;;;21.27;17.98;;;;;;;-146.61;100.00;58846.50;6263471;22;20012;-86
2021/07/25 00:08:25;;;;;;;24.50;19.20;;;;;;;-146.61;100.00;58846.50;6262734;22;20051;-85
2021/07/25 00:10:52;;;;;;;21.50;16.80;;;;;;;-146.61;100.00;58846.50;6283430;22;20088;-86
2021/07/25 00:13:19;;;;;;;21.38;16.67;;;;;;;-146.61;100.00;58846.50;6261432;22;20030;-85
2021/07/25 00:15:46;;;;;;;22.35;17.13;;;;;;;-146.61;100.00;58846.50;6260034;22;20114;-84
2021/07/25 00:18:13;;;;;;;21.95;16.83;;;;;;;-146.61;100.00;58846.50;6259224;22;20027;-84
2021/07/25 00:20:39;;;;;;;24.17;17.98;;;;;;;-146.61;100.00;58846.50;6263854;22;20028;-84
2021/07/25 00:23:07;;;;;;;22.45;18.30;;;;;;;-146.61;100.00;58846.50;6259056;22;20031;-86
2021/07/25 00:25:35;;;;;;;24.13;19.50;;;;;;;-146.61;100.00;58846.50;6263127;22;20020;-83
2021/07/25 00:28:01;;;;;;;22.55;18.27;;;;;;;-146.61;100.00;58846.50;6260915;22;20062;-85
2021/07/25 00:30:28;;;;;;;27.98;20.75;;;;;;;-146.61;100.00;58846.50;6261752;22;20119;-84
2021/07/25 00:32:55;;;;;;;23.77;19.80;;;;;;;-146.61;100.00;58846.50;6265406;22;20107;-84
2021/07/25 00:35:24;;;;;;;29.38;21.60;;;;;;;-146.61;100.00;58846.50;6289916;22;20019;-84
2021/07/25 00:37:52;;;;;;;23.73;19.80;;;;;;;-146.61;100.00;58846.50;6266333;22;20082;-85
2021/07/25 00:40:35;;;;;;;29.20;20.65;;;;;;;-146.61;100.00;58846.50;6263668;22;20024;-84
2021/07/25 00:43:01;;;;;;;23.20;19.63;;;;;;;-146.61;100.00;58846.50;6266311;22;20019;-83
2021/07/25 00:45:30;;;;;;;28.95;21.63;;;;;;;-146.61;100.00;58846.50;6264867;22;20020;-85
2021/07/25 00:47:58;;;;;;;22.52;19.33;;;;;;;-146.61;100.00;58846.50;6238322;22;20030;-85
2021/07/25 00:50:25;;;;;;;25.55;21.15;;;;;;;-146.61;100.00;58846.50;6268117;22;20023;-85
2021/07/25 00:52:52;;;;;;;24.60;19.60;;;;;;;-146.61;100.00;58846.50;6263673;22;20019;-85
2021/07/25 00:55:21;;;;;;;26.35;19.85;;;;;;;-146.61;100.00;58846.50;6265459;22;20023;-85
2021/07/25 00:57:49;;;;;;;26.77;20.08;;;;;;;-146.61;100.00;58846.50;6262281;22;20069;-84
2021/07/25 01:00:16;;;;;;;26.48;19.92;;;;;;;-146.61;100.00;58846.50;6262372;22;20514;-86
2021/07/25 01:02:54;;;;;;;27.83;22.20;;;;;;;-146.61;100.00;58846.50;6264731;22;20027;-86
2021/07/25 01:05:35;;;;;;;27.52;20.05;;;;;;;-146.61;100.00;58846.50;6263862;22;20019;-87
2021/07/25 01:08:12;;;;;;;28.88;21.63;;;;;;;-146.61;100.00;58846.50;6265403;22;20028;-84
2021/07/25 01:10:40;;;;;;;31.55;23.67;;;;;;;-146.61;100.00;58846.50;6260363;22;20034;-86
2021/07/25 01:13:16;;;;;;;31.40;25.52;;;;;;;-146.61;100.00;58846.50;6264705;22;20077;-86
2021/07/25 01:15:43;;;;;;;35.45;26.88;;;;;;;-146.61;100.00;58846.50;6260631;22;20024;-84
2021/07/25 01:18:10;;;;;;;31.45;26.23;;;;;;;-146.61;100.00;58846.50;6264134;22;20114;-84
2021/07/25 01:20:36;;;;;;;29.50;23.55;;;;;;;-146.61;100.00;58846.50;6265032;22;20439;-86
2021/07/25 01:23:03;;;;;;;31.50;25.15;;;;;;;-146.61;100.00;58846.50;6266585;22;20043;-84
2021/07/25 01:25:30;;;;;;;35.97;27.05;;;;;;;-146.61;100.00;58846.50;6290060;22;20031;-86
2021/07/25 01:28:04;;;;;;;35.55;24.98;;;;;;;-146.61;100.00;58846.50;6258949;22;20024;-86
2021/07/25 01:30:41;;;;;;;34.80;25.27;;;;;;;-146.61;100.00;58846.50;6266092;22;20026;-86
2021/07/25 01:33:13;;;;;;;38.03;27.75;;;;;;;-146.61;100.00;58846.50;6264199;22;20015;-85
2021/07/25 01:35:41;;;;;;;38.40;29.15;;;;;;;-146.61;100.00;58846.50;6262341;22;20073;-86
2021/07/25 01:38:08;;;;;;;34.05;27.33;;;;;;;-146.61;100.00;58846.50;6261966;22;20054;-84
2021/07/25 01:40:35;;;;;;;41.70;31.17;;;;;;;-146.61;100.00;58846.50;6262604;22;20417;-84
2021/07/25 01:43:02;;;;;;;35.83;27.63;;;;;;;-146.61;100.00;58846.50;6291820;22;20019;-86
2021/07/25 01:45:28;;;;;;;35.78;27.48;;;;;;;-146.61;100.00;58846.50;6261475;22;20201;-86
2021/07/25 01:47:55;;;;;;;39.95;31.35;;;;;;;-146.61;100.00;58846.50;6264340;22;20019;-84
2021/07/25 01:50:21;;;;;;;45.55;32.92;;;;;;;-146.61;100.00;58846.50;6262618;22;20020;-86
2021/07/25 01:52:48;;;;;;;32.20;25.33;;;;;;;-146.61;100.00;58846.50;6263518;22;20092;-84
2021/07/25 01:55:14;;;;;;;38.22;29.48;;;;;;;-146.61;100.00;58846.50;6264564;22;20085;-86
2021/07/25 01:57:41;;;;;;;31.60;24.75;;;;;;;-146.61;100.00;58846.50;6259631;22;20069;-84
2021/07/25 02:00:09;;;;;;;41.22;31.83;;;;;;;-146.61;100.00;58846.50;6263589;22;20029;-85
2021/07/25 02:02:35;;;;;;;37.90;28.88;;;;;;;-146.61;100.00;58846.50;6261285;22;20034;-85
2021/07/25 02:05:02;;;;;;;36.88;28.42;;;;;;;-146.61;100.00;58846.50;6262580;22;20022;-84
2021/07/25 02:07:28;;;;;;;37.15;27.63;;;;;;;-146.61;100.00;58846.50;6260211;22;20451;-86
2021/07/25 02:09:55;;;;;;;38.53;28.65;;;;;;;-146.61;100.00;58846.50;6262580;22;20050;-83
2021/07/25 02:12:21;;;;;;;41.72;29.60;;;;;;;-146.61;100.00;58846.50;6263524;22;20054;-85
2021/07/25 02:14:48;;;;;;;40.83;32.35;;;;;;;-146.61;100.00;58846.50;6261397;22;20027;-84
2021/07/25 02:17:15;;;;;;;39.28;30.45;;;;;;;-146.61;100.00;58846.50;6261618;22;20051;-85
2021/07/25 02:19:41;;;;;;;36.30;26.73;;;;;;;-146.61;100.00;58846.50;6261014;22;20355;-84
2021/07/25 02:22:08;;;;;;;36.78;27.98;;;;;;;-146.61;100.00;58846.50;6264232;22;20024;-84
2021/07/25 02:24:34;;;;;;;32.70;26.25;;;;;;;-146.61;100.00;58846.50;6263491;22;20502;-86
2021/07/25 02:27:01;;;;;;;43.88;34.13;;;;;;;-146.61;100.00;58846.50;6259829;22;20109;-85
2021/07/25 02:29:27;;;;;;;48.20;34.95;;;;;;;-146.61;100.00;58846.50;6262837;22;20131;-84
2021/07/25 02:31:54;;;;;;;44.92;32.25;;;;;;;-146.61;100.00;58846.50;6260546;22;20275;-84
2021/07/25 02:34:20;;;;;;;38.97;29.27;;;;;;;-146.61;100.00;58846.50;6261059;22;20085;-85
2021/07/25 02:36:47;;;;;;;43.17;32.38;;;;;;;-146.61;100.00;58846.50;6288764;22;20012;-85
2021/07/25 02:39:14;;;;;;;42.72;33.38;;;;;;;-146.61;100.00;58846.50;6258033;22;20026;-84
2021/07/25 02:41:40;;;;;;;36.78;28.10;;;;;;;-146.61;100.00;58846.50;6265646;22;20085;-85
2021/07/25 02:44:08;;;;;;;43.35;29.75;;;;;;;-146.61;100.00;58846.50;6262265;22;20027;-84
2021/07/25 02:46:35;;;;;;;37.38;29.67;;;;;;;-146.61;100.00;58846.50;6260498;22;20087;-84
2021/07/25 02:49:01;;;;;;;46.47;32.45;;;;;;;-146.61;100.00;58846.50;6261951;22;20466;-83
2021/07/25 02:51:28;;;;;;;34.47;25.42;;;;;;;-146.61;100.00;58846.50;6259922;22;20027;-84
2021/07/25 02:53:54;;;;;;;51.15;34.53;;;;;;;-146.61;100.00;58846.50;6263665;22;20919;-84
2021/07/25 02:56:21;;;;;;;35.85;28.25;;;;;;;-146.61;100.00;58846.50;6260239;22;20083;-86
2021/07/25 02:58:47;;;;;;;44.92;32.58;;;;;;;-146.61;100.00;58846.50;6262046;22;20020;-85
2021/07/25 03:01:14;;;;;;;41.80;32.13;;;;;;;-146.61;100.00;58846.50;6258273;22;20455;-85
2021/07/25 03:03:41;;;;;;;37.17;28.80;;;;;;;-146.61;100.00;58846.50;6262300;22;20459;-86
2021/07/25 03:06:08;;;;;;;46.70;34.78;;;;;;;-146.61;100.00;58846.50;6288480;22;20020;-85
2021/07/25 03:08:35;;;;;;;43.20;31.95;;;;;;;-146.61;100.00;58846.50;6258955;22;20443;-85
2021/07/25 03:11:02;;;;;;;45.55;33.15;;;;;;;-146.61;100.00;58846.50;6265064;22;20096;-85
2021/07/25 03:13:29;;;;;;;49.72;33.67;;;;;;;-146.61;100.00;58846.50;6259766;22;20019;-84
2021/07/25 03:16:10;;;;;;;37.65;30.23;;;;;;;-146.61;100.00;58846.50;6260313;22;20069;-85
2021/07/25 03:18:37;;;;;;;37.33;28.55;;;;;;;-146.61;100.00;58846.50;6259052;22;20015;-84
2021/07/25 03:21:05;;;;;;;40.65;30.70;;;;;;;-146.61;100.00;58846.50;6260588;22;20019;-85
2021/07/25 03:23:31;;;;;;;49.90;34.65;;;;;;;-146.61;100.00;58846.50;6264147;22;20020;-85
2021/07/25 03:25:58;;;;;;;41.30;30.67;;;;;;;-146.61;100.00;58846.50;6258970;22;20020;-85
2021/07/25 03:28:24;;;;;;;44.78;32.67;;;;;;;-146.61;100.00;58846.50;6261399;22;20024;-86
2021/07/25 03:30:51;;;;;;;51.05;33.97;;;;;;;-146.61;100.00;58846.50;6259175;22;20027;-85
2021/07/25 03:33:18;;;;;;;42.53;30.50;;;;;;;-146.61;100.00;58846.50;6263489;22;20026;-85
2021/07/25 03:35:46;;;;;;;46.15;30.73;;;;;;;-146.61;100.00;58846.50;6263383;22;20089;-84
2021/07/25 03:38:16;;;;;;;48.45;34.30;;;;;;;-146.61;100.00;58846.50;6258268;22;20081;-85
2021/07/25 03:40:43;;;;;;;45.53;30.45;;;;;;;-146.61;100.00;58846.50;6263991;22;20023;-84
2021/07/25 03:43:11;;;;;;;47.05;32.13;;;;;;;-146.61;100.00;58846.50;6260270;22;20019;-85
2021/07/25 03:45:42;;;;;;;33.55;26.20;;;;;;;-146.61;100.00;58846.50;6259428;22;20099;-85
2021/07/25 03:48:08;;;;;;;35.30;27.40;;;;;;;-146.61;100.00;58846.50;6261147;22;20030;-85
2021/07/25 03:50:36;;;;;;;43.40;30.35;;;;;;;-146.61;100.00;58846.50;6261596;22;20030;-85
2021/07/25 03:53:02;;;;;;;39.63;29.38;;;;;;;-146.61;100.00;58846.50;6263955;22;20051;-85
2021/07/25 03:55:29;;;;;;;36.55;28.42;;;;;;;-146.61;100.00;58846.50;6261747;22;20031;-84
2021/07/25 03:57:56;;;;;;;38.40;28.83;;;;;;;-146.61;100.00;58846.50;6263251;22;20415;-84
2021/07/25 04:00:23;;;;;;;46.78;32.72;;;;;;;-146.61;100.00;58846.50;6258657;22;20024;-83
2021/07/25 04:02:49;;;;;;;39.85;28.17;;;;;;;-146.61;100.00;58846.50;6261355;22;20031;-83
2021/07/25 04:05:18;;;;;;;32.33;25.92;;;;;;;-146.61;100.00;58846.50;6264380;22;20439;-85
2021/07/25 04:07:45;;;;;;;32.78;26.27;;;;;;;-146.61;100.00;58846.50;6256337;22;20831;-86
2021/07/25 04:10:12;;;;;;;40.67;28.42;;;;;;;-146.61;100.00;58846.50;6264893;22;20842;-86
2021/07/25 04:12:38;;;;;;;39.30;27.90;;;;;;;-146.61;100.00;58846.50;6261321;22;20027;-85
2021/07/25 04:15:05;;;;;;;37.22;28.13;;;;;;;-146.61;100.00;58846.50;6261257;22;20081;-85
2021/07/25 04:17:34;;;;;;;40.65;29.00;;;;;;;-146.61;100.00;58846.50;6255595;22;20031;-85
2021/07/25 04:20:00;;;;;;;37.47;27.40;;;;;;;-146.61;100.00;58846.50;6261240;22;20032;-85
2021/07/25 04:22:27;;;;;;;45.30;30.48;;;;;;;-146.61;100.00;58846.50;6264242;22;20035;-85
2021/07/25 04:24:53;;;;;;;41.55;28.92;;;;;;;-146.61;100.00;58846.50;6260440;22;20020;-86
2021/07/25 04:27:20;;;;;;;39.90;30.00;;;;;;;-146.61;100.00;58846.50;6262210;22;20450;-85
2021/07/25 04:29:47;;;;;;;39.72;28.13;;;;;;;-146.61;100.00;58846.50;6262322;22;20098;-85
2021/07/25 04:32:17;;;;;;;41.42;31.08;;;;;;;-146.61;100.00;58846.50;6261846;22;20768;-86
2021/07/25 04:34:46;;;;;;;32.50;25.08;;;;;;;-146.61;100.00;58846.50;6264564;22;20088;-85
2021/07/25 04:37:22;;;;;;;40.25;29.77;;;;;;;-146.61;100.00;58846.50;6257512;22;20024;-85
2021/07/25 04:39:49;;;;;;;42.25;28.83;;;;;;;-146.61;100.00;58846.50;6263443;22;20020;-86
2021/07/25 04:42:18;;;;;;;38.13;27.45;;;;;;;-146.61;100.00;58846.50;6261561;22;20027;-85
2021/07/25 04:44:55;;;;;;;42.22;28.90;;;;;;;-146.61;100.00;58846.50;6263154;22;20066;-85
2021/07/25 04:47:30;;;;;;;37.53;27.60;;;;;;;-146.61;100.00;58846.50;6259838;22;20027;-85
2021/07/25 04:50:05;;;;;;;37.33;27.10;;;;;;;-146.61;100.00;58846.50;6262547;22;20023;-86
2021/07/25 04:52:42;;;;;;;36.83;26.98;;;;;;;-146.61;100.00;58846.50;6264586;22;20035;-86
2021/07/25 04:55:12;;;;;;;36.67;26.35;;;;;;;-146.61;100.00;58846.50;6262488;22;20023;-85
2021/07/25 04:57:44;;;;;;;35.60;27.50;;;;;;;-146.61;100.00;58846.50;6262066;22;20046;-86
2021/07/25 05:00:15;;;;;;;38.17;26.38;;;;;;;-146.61;100.00;58846.50;6261190;22;20023;-85
2021/07/25 05:02:44;;;;;;;36.72;25.70;;;;;;;-146.61;100.00;58846.50;6263384;22;20687;-84
2021/07/25 05:05:11;;;;;;;28.48;23.10;;;;;;;-146.61;100.00;58846.50;6260764;22;20507;-84
2021/07/25 05:07:43;;;;;;;33.97;27.30;;;;;;;-146.61;100.00;58846.50;6262002;22;20034;-84
2021/07/25 05:10:11;;;;;;;37.88;26.42;;;;;;;-146.61;100.00;58846.50;6264090;22;20031;-84
2021/07/25 05:12:43;;;;;;;33.53;24.77;;;;;;;-146.61;100.00;58846.50;6259771;22;20020;-85
2021/07/25 05:15:18;;;;;;;40.45;26.75;;;;;;;-146.61;100.00;58846.50;6263159;22;20028;-84
2021/07/25 05:17:55;;;;;;;35.55;25.10;;;;;;;-146.61;100.00;58846.50;6260236;22;20097;-84
2021/07/25 05:20:30;;;;;;;37.35;25.17;;;;;;;-146.61;100.00;58846.50;6263260;22;20107;-84
2021/07/25 05:23:02;;;;;;;31.13;24.35;;;;;;;-146.61;100.00;58846.50;6262630;22;20023;-84
2021/07/25 05:25:31;;;;;;;29.70;23.77;;;;;;;-146.61;100.00;58846.50;6262595;22;20019;-84
2021/07/25 05:28:02;;;;;;;29.65;22.17;;;;;;;-146.61;100.00;58846.50;6265324;22;20080;-84
2021/07/25 05:30:31;;;;;;;34.47;23.40;;;;;;;-146.61;100.00;58846.50;6264246;22;20069;-84
2021/07/25 05:32:57;;;;;;;35.28;24.38;;;;;;;-146.61;100.00;58846.50;6265294;22;20027;-84
2021/07/25 05:35:24;;;;;;;30.75;22.55;;;;;;;-146.61;100.00;58846.50;6263565;22;20024;-84
2021/07/25 05:37:50;;;;;;;34.22;21.10;;;;;;;-146.61;100.00;58846.50;6264205;22;20643;-83
2021/07/25 05:40:17;;;;;;;29.27;21.05;;;;;;;-146.61;100.00;58846.50;6263598;22;20043;-86
2021/07/25 05:42:44;;;;;;;26.35;19.88;;;;;;;-146.61;100.00;58846.50;6265004;22;20037;-86
2021/07/25 05:45:12;;;;;;;27.15;21.58;;;;;;;-146.61;100.00;58846.50;6265446;22;20739;-83
2021/07/25 05:47:39;;;;;;;32.03;21.38;;;;;;;-146.61;100.00;58846.50;6261158;22;20026;-83
2021/07/25 05:50:06;;;;;;;28.67;20.67;;;;;;;-146.61;100.00;58846.50;6265764;22;20054;-85
2021/07/25 05:52:48;;;;;;;26.70;20.13;;;;;;;-146.61;100.00;58846.50;6264379;22;20057;-85
2021/07/25 05:55:17;;;;;;;28.00;19.77;;;;;;;-146.61;100.00;58846.50;6263443;22;20422;-85
2021/07/25 05:57:44;;;;;;;24.85;19.48;;;;;;;-146.61;100.00;58846.50;6263284;22;20074;-85
2021/07/25 06:00:11;;;;;;;26.65;19.88;;;;;;;-146.61;100.00;58846.50;6262675;22;20366;-86
2021/07/25 06:02:53;;;;;;;28.05;20.80;;;;;;;-146.61;100.00;58846.50;6265267;22;20085;-84
2021/07/25 06:05:21;;;;;;;27.67;19.35;;;;;;;-146.61;100.00;58846.50;6261160;22;20097;-85
2021/07/25 06:07:48;;;;;;;26.52;20.08;;;;;;;-146.61;100.00;58846.50;6266857;22;20016;-85
2021/07/25 06:10:14;;;;;;;26.23;19.27;;;;;;;-146.61;100.00;58846.50;6287797;22;20533;-85
2021/07/25 06:12:41;;;;;;;26.13;20.13;;;;;;;-146.61;100.00;58846.50;6263441;22;20028;-83
2021/07/25 06:15:10;;;;;;;24.27;19.30;;;;;;;-146.61;100.00;58846.50;6264267;22;20077;-84
2021/07/25 06:17:37;;;;;;;24.90;19.20;;;;;;;-146.61;100.00;58846.50;6262414;22;20024;-85
2021/07/25 06:20:07;;;;;;;20.77;18.42;;;;;;;-146.61;100.00;58846.50;6266433;22;20095;-85
2021/07/25 06:22:53;;;;;;;20.33;16.65;;;;;;;-146.61;100.00;58846.50;6262792;22;20417;-84
2021/07/25 06:25:26;;;;;;;18.52;15.80;;;;;;;-146.61;100.00;58846.50;6264724;22;20222;-86
2021/07/25 06:27:55;;;;;;;20.20;15.75;;;;;;;-146.61;100.00;58846.50;6263433;22;20026;-83
2021/07/25 06:30:24;;;;;;;22.95;18.02;;;;;;;-146.61;100.00;58846.50;6262045;22;20122;-86
2021/07/25 06:33:05;;;;;;;20.85;15.40;;;;;;;-146.61;100.00;58846.50;6265622;22;20059;-84
2021/07/25 06:35:34;;;;;;;17.92;15.23;;;;;;;-146.61;100.00;58846.50;6262269;22;20020;-85
2021/07/25 06:38:03;;;;;;;18.85;16.13;;;;;;;-146.61;100.00;58846.50;6264546;22;20019;-85
2021/07/25 06:40:30;;;;;;;23.58;15.52;;;;;;;-146.61;100.00;58846.50;6262251;22;20023;-85
2021/07/25 06:42:58;;;;;;;27.02;15.85;;;;;;;-146.61;100.00;58846.50;6289475;22;20028;-84
2021/07/25 06:45:25;;;;;;;17.92;14.65;;;;;;;-146.61;100.00;58846.50;6263856;22;20319;-84
2021/07/25 06:47:54;;;;;;;20.58;14.98;;;;;;;-146.61;100.00;58846.50;6289162;22;20024;-84
2021/07/25 06:50:27;;;;;;;17.95;15.07;;;;;;;-146.61;100.00;58846.50;6289940;22;20027;-87
2021/07/25 06:52:54;;;;;;;19.70;14.83;;;;;;;-146.61;100.00;58846.50;6260009;22;20077;-84
2021/07/25 06:55:24;;;;;;;19.98;15.43;;;;;;;-146.61;100.00;58846.50;6264409;22;20304;-85
2021/07/25 06:57:51;;;;;;;18.08;13.75;;;;;;;-146.61;100.00;58846.50;6262503;22;20651;-86
2021/07/25 07:00:18;;;;;;;19.00;15.43;;;;;;;-146.61;100.00;58846.50;6261683;22;20031;-86
2021/07/25 07:02:55;;;;;;;22.08;14.68;;;;;;;-146.61;100.00;58846.50;6262862;22;20020;-86
2021/07/25 07:05:29;;;;;;;19.50;15.13;;;;;;;-146.61;100.00;58846.50;6264389;22;20080;-86
2021/07/25 07:07:58;;;;;;;21.10;14.05;;;;;;;-146.61;100.00;58846.50;6264448;22;20026;-86
2021/07/25 07:10:28;;;;;;;16.88;13.73;;;;;;;-146.61;100.00;58846.50;6259490;22;20027;-86
2021/07/25 07:12:56;;;;;;;18.23;13.63;;;;;;;-146.61;100.00;58846.50;6263415;22;20019;-86
2021/07/25 07:15:24;;;;;;;20.02;13.23;;;;;;;-146.61;100.00;58846.50;6260981;22;20088;-86
2021/07/25 07:17:52;;;;;;;20.00;15.07;;;;;;;-146.61;100.00;58846.50;6261984;22;20367;-84
2021/07/25 07:20:19;;;;;;;21.23;14.68;;;;;;;-146.61;100.00;58846.50;6261220;22;20081;-87
2021/07/25 07:23:04;;;;;;;25.92;14.18;;;;;;;-146.61;100.00;58846.50;6261655;22;20038;-86
2021/07/25 07:25:38;;;;;;;14.90;12.48;;;;;;;-146.61;100.00;58846.50;6264935;22;20051;-85
2021/07/25 07:28:06;;;;;;;16.10;12.30;;;;;;;-146.61;100.00;58846.50;6259005;22;20023;-87
2021/07/25 07:30:33;;;;;;;14.95;11.70;;;;;;;-146.61;100.00;58846.50;6262513;22;20107;-86
2021/07/25 07:33:17;;;;;;;13.95;11.30;;;;;;;-146.61;100.00;58846.50;6262289;22;20054;-86
2021/07/25 07:35:46;;;;;;;12.90;10.18;;;;;;;-146.61;100.00;58846.50;6261066;22;20058;-85
2021/07/25 07:38:14;;;;;;;15.20;12.10;;;;;;;-146.61;100.00;58846.50;6258642;22;20020;-85
2021/07/25 07:40:44;;;;;;;13.65;12.23;;;;;;;-146.61;100.00;58846.50;6261562;22;20102;-86
2021/07/25 07:43:12;;;;;;;16.25;12.77;;;;;;;-146.61;100.00;58846.50;6262107;22;20033;-85
2021/07/25 07:45:40;;;;;;;17.85;12.55;;;;;;;-146.61;100.00;58846.50;6257928;22;20455;-86
2021/07/25 07:48:07;;;;;;;14.27;12.77;;;;;;;-146.61;100.00;58846.50;6258541;22;20043;-86
2021/07/25 07:50:34;;;;;;;14.23;12.32;;;;;;;-146.61;100.00;58846.50;6257875;22;20023;-86
2021/07/25 07:53:00;;;;;;;14.18;12.13;;;;;;;-146.61;100.00;58846.50;6262275;22;20376;-85
2021/07/25 07:55:33;;;;;;;13.13;11.38;;;;;;;-146.61;100.00;58846.50;6261479;22;20077;-87
2021/07/25 07:58:00;;;;;;;14.50;12.30;;;;;;;-146.61;100.00;58846.50;6259248;22;20019;-85
2021/07/25 08:00:29;;;;;;;13.88;9.95;;;;;;;-146.61;100.00;58846.50;6261801;22;20023;-86
2021/07/25 08:02:55;;;;;;;10.93;9.88;;;;;;;-146.61;100.00;58846.50;6284589;22;20110;-85
2021/07/25 08:05:22;;;;;;;10.38;9.38;;;;;;;-146.61;100.00;58846.50;6261566;22;20047;-86
2021/07/25 08:07:51;;;;;;;10.15;9.10;;;;;;;-146.61;100.00;58846.50;6283706;22;20122;-86
2021/07/25 08:10:18;;;;;;;9.85;8.85;;;;;;;-146.61;100.00;58846.50;6261756;22;20498;-86
2021/07/25 08:12:47;;;;;;;13.27;9.18;;;;;;;-146.61;100.00;58846.50;6288123;22;20025;-85
2021/07/25 08:15:15;;;;;;;11.20;10.15;;;;;;;-146.61;100.00;58846.50;6257600;22;20343;-86
2021/07/25 08:17:41;;;;;;;11.63;10.45;;;;;;;-146.61;100.00;58846.50;6259897;22;20532;-86
2021/07/25 08:20:09;;;;;;;9.90;8.73;;;;;;;-146.61;100.00;58846.50;6258621;22;20311;-87
2021/07/25 08:22:36;;;;;;;13.45;10.10;;;;;;;-146.61;100.00;58846.50;6260435;22;20470;-86
2021/07/25 08:25:03;;;;;;;10.38;9.32;;;;;;;-146.61;100.00;58846.50;6260740;22;20030;-85
2021/07/25 08:27:32;;;;;;;13.30;11.05;;;;;;;-146.61;100.00;58846.50;6285773;22;20039;-85
2021/07/25 08:29:59;;;;;;;10.63;9.45;;;;;;;-146.61;100.00;58846.50;6262452;22;20023;-87
2021/07/25 08:32:25;;;;;;;10.57;9.38;;;;;;;-146.61;100.00;58846.50;6283307;22;20031;-87
2021/07/25 08:34:52;;;;;;;10.65;9.65;;;;;;;-146.61;100.00;58846.50;6262290;22;20023;-86
2021/07/25 08:37:18;;;;;;;11.07;8.73;;;;;;;-146.61;100.00;58846.50;6274577;22;20015;-85
2021/07/25 08:39:47;;;;;;;9.63;8.68;;;;;;;-146.61;100.00;58846.50;6275901;22;20742;-85
2021/07/25 08:42:16;;;;;;;9.65;8.02;;;;;;;-146.61;100.00;58846.50;6265424;22;20625;-86
2021/07/25 08:44:57;;;;;;;8.77;7.95;;;;;;;-146.61;100.00;58846.50;6287786;22;20374;-86
2021/07/25 08:47:28;;;;;;;10.07;9.07;;;;;;;-146.61;100.00;58846.50;6262337;22;20020;-84
2021/07/25 08:50:04;;;;;;;8.85;8.05;;;;;;;-146.61;100.00;58846.50;6284605;22;20454;-85
2021/07/25 08:52:33;;;;;;;13.60;9.18;;;;;;;-146.61;100.00;58846.50;6261538;22;20074;-85
2021/07/25 08:55:02;;;;;;;10.40;9.43;;;;;;;-146.61;100.00;58846.50;6257997;22;20028;-87
2021/07/25 08:57:32;;;;;;;9.85;8.93;;;;;;;-146.61;100.00;58846.50;6261442;22;20020;-87
2021/07/25 08:59:59;;;;;;;9.35;8.45;;;;;;;-146.61;100.00;58846.50;6265167;22;20020;-85
2021/07/25 09:02:31;;;;;;;8.57;7.78;;;;;;;-146.61;100.00;58846.50;6287314;22;20027;-85
2021/07/25 09:04:59;;;;;;;9.77;8.77;;;;;;;-146.61;100.00;58846.50;6265018;22;20019;-85
2021/07/25 09:07:27;;;;;;;10.10;8.95;;;;;;;-146.61;100.00;58846.50;6275494;22;20282;-86
2021/07/25 09:10:03;;;;;;;11.65;8.77;;;;;;;-146.61;100.00;58846.50;6261936;22;20016;-85
2021/07/25 09:12:33;;;;;;;9.02;8.13;;;;;;;-146.61;100.00;58846.50;6285296;22;20390;-85
2021/07/25 09:15:09;;;;;;;9.13;8.23;;;;;;;-146.61;100.00;58846.50;6287161;22;20028;-86
2021/07/25 09:17:35;;;;;;;8.45;7.60;;;;;;;-146.61;100.00;58846.50;6270066;22;20028;-84
2021/07/25 09:20:13;;;;;;;7.65;7.05;;;;;;;-146.61;100.00;58846.50;6289695;22;20098;-88
2021/07/25 09:22:56;;;;;;;9.07;8.27;;;;;;;-146.61;100.00;58846.50;6290610;22;20027;-85
2021/07/25 09:25:22;;;;;;;8.45;7.72;;;;;;;-146.61;100.00;58846.50;6263374;22;20023;-85
2021/07/25 09:27:58;;;;;;;7.35;6.63;;;;;;;-146.61;100.00;58846.50;6263122;22;20054;-86
2021/07/25 09:30:34;;;;;;;8.63;7.80;;;;;;;-146.61;100.00;58846.50;6287773;22;20538;-82
2021/07/25 09:33:01;;;;;;;8.55;7.75;;;;;;;-146.61;100.00;58846.50;6289371;22;20671;-85
2021/07/25 09:35:37;;;;;;;9.05;8.35;;;;;;;-146.61;100.00;58846.50;6264154;22;20023;-86
2021/07/25 09:38:06;;;;;;;8.48;7.68;;;;;;;-146.61;100.00;58846.50;6261123;22;20073;-89
2021/07/25 09:40:37;;;;;;;9.10;8.13;;;;;;;-146.61;100.00;58846.50;6288918;22;20077;-83
2021/07/25 09:43:10;;;;;;;9.40;8.50;;;;;;;-146.61;100.00;58846.50;6262307;22;20077;-87
2021/07/25 09:45:50;;;;;;;10.05;9.15;;;;;;;-146.61;100.00;58846.50;6287578;22;20032;-83
2021/07/25 09:48:20;;;;;;;7.75;7.05;;;;;;;-146.61;100.00;58846.50;6260139;22;20023;-84
2021/07/25 09:50:48;;;;;;;10.35;9.38;;;;;;;-146.61;100.00;58846.50;6263280;22;20034;-83
2021/07/25 09:53:16;;;;;;;8.73;7.93;;;;;;;-146.61;100.00;58846.50;6264304;22;20095;-82
2021/07/25 09:55:46;;;;;;;10.65;8.13;;;;;;;-146.61;100.00;58846.50;6286595;22;20346;-86
2021/07/25 09:58:12;;;;;;;8.95;8.13;;;;;;;-146.61;100.00;58846.50;6289039;22;20126;-88
2021/07/25 10:00:41;;;;;;;9.95;8.80;;;;;;;-146.61;100.00;58846.50;6262645;22;20027;-85
2021/07/25 10:03:21;;;;;;;12.18;8.50;;;;;;;-146.61;100.00;58846.50;6264117;22;20019;-89
2021/07/25 10:05:53;;;;;;;8.80;7.97;;;;;;;-146.61;100.00;58846.50;6288933;22;20386;-87
2021/07/25 10:08:22;;;;;;;9.98;8.80;;;;;;;-146.61;100.00;58846.50;6287685;22;20497;-86
2021/07/25 10:10:54;;;;;;;11.75;8.60;;;;;;;-146.61;100.00;58846.50;6265598;22;20095;-83
2021/07/25 10:13:23;;;;;;;8.38;7.72;;;;;;;-146.61;100.00;58846.50;6290301;22;20027;-84
2021/07/25 10:15:55;;;;;;;8.32;7.63;;;;;;;-146.61;100.00;58846.50;6289314;22;20016;-81
2021/07/25 10:18:23;;;;;;;9.98;8.98;;;;;;;-146.61;100.00;58846.50;6287665;22;20030;-82
2021/07/25 10:21:02;;;;;;;9.25;8.45;;;;;;;-146.61;100.00;58846.50;6287721;22;20023;-83
2021/07/25 10:26:26;;;;;;;7.75;7.05;;;;;;;-146.61;100.00;58846.50;6268902;22;20019;-85
2021/07/25 10:29:00;;;;;;;8.48;7.72;;;;;;;-146.61;100.00;58846.50;6267349;22;20015;-87
2021/07/25 10:31:28;;;;;;;8.27;7.18;;;;;;;-146.61;100.00;58846.50;6269872;22;20209;-82
2021/07/25 10:33:56;;;;;;;8.20;7.47;;;;;;;-146.61;100.00;58846.50;6269158;22;20020;-85
2021/07/25 10:36:32;;;;;;;8.43;7.72;;;;;;;-146.61;100.00;58846.50;6273382;22;20101;-85
2021/07/25 10:39:01;;;;;;;7.25;6.65;;;;;;;-146.61;100.00;58846.50;6274133;22;20015;-88
2021/07/25 10:41:28;;;;;;;8.60;6.95;;;;;;;-146.61;100.00;58846.50;6292512;22;20019;-85
2021/07/25 10:44:01;;;;;;;7.45;6.80;;;;;;;-146.61;100.00;58846.50;6265057;22;20023;-88
2021/07/25 10:46:32;;;;;;;6.78;6.18;;;;;;;-146.61;100.00;58846.50;6271611;22;20034;-86
2021/07/25 10:49:05;;;;;;;8.65;7.18;;;;;;;-146.61;100.00;58846.50;6272978;22;20404;-83
2021/07/25 10:51:35;;;;;;;7.93;7.22;;;;;;;-146.61;100.00;58846.50;6297759;22;20023;-85
2021/07/25 10:54:20;;;;;;;6.35;5.95;;;;;;;-146.61;100.00;58846.50;6298342;22;20019;-86
2021/07/25 10:57:04;;;;;;;8.38;7.32;;;;;;;-146.61;100.00;58846.50;6296467;22;20028;-88
2021/07/25 10:59:55;;;;;;;7.88;7.18;;;;;;;-146.61;100.00;58846.50;6265352;22;20019;-87
2021/07/25 11:02:25;;;;;;;10.35;9.05;;;;;;;-146.61;100.00;58846.50;6267615;22;20109;-84
2021/07/25 11:04:51;;;;;;;6.68;6.18;;;;;;;-146.61;100.00;58846.50;6295660;22;20111;-83
2021/07/25 11:07:24;;;;;;;7.43;6.68;;;;;;;-146.61;100.00;58846.50;6263032;22;20023;-83
2021/07/25 11:10:07;;;;;;;7.85;7.25;;;;;;;-146.61;100.00;58846.50;6290335;22;20328;-83